createdAt,value
2022-10-28T00:00:11.984Z,7.80
2022-10-28T00:02:41.120Z,8.52
2022-10-28T00:05:11.023Z,7.90
2022-10-28T00:07:40.083Z,6.93
2022-10-28T00:10:10.525Z,9.48
2022-10-28T00:12:40.961Z,7.53
2022-10-28T00:15:10.975Z,18.52
2022-10-28T00:17:40.001Z,9.10
2022-10-28T00:20:10.629Z,8.35
2022-10-28T00:22:39.787Z,7.28
2022-10-28T00:25:09.893Z,5.90
2022-10-28T00:27:40.300Z,6.72
2022-10-28T00:30:10.527Z,5.35
2022-10-28T00:32:39.548Z,6.70
2022-10-28T00:35:09.364Z,5.47
2022-10-28T00:37:38.419Z,7.32
2022-10-28T00:40:08.544Z,8.35
2022-10-28T00:42:37.611Z,6.32
2022-10-28T00:45:10.884Z,16.60
2022-10-28T00:47:52.277Z,5.78
2022-10-28T00:50:40.925Z,6.55
2022-10-28T00:55:46.088Z,12.70
2022-10-28T00:58:16.040Z,12.82
2022-10-28T01:00:46.532Z,6.22
2022-10-28T01:03:16.285Z,8.82
2022-10-28T01:05:52.173Z,6.95
2022-10-28T01:08:21.484Z,8.30
2022-10-28T01:11:41.620Z,11.88
2022-10-28T01:14:24.193Z,6.20
2022-10-28T01:17:14.341Z,6.72
2022-10-28T01:20:26.086Z,9.57
2022-10-28T01:23:06.301Z,6.97
2022-10-28T01:26:08.899Z,4.00
2022-10-28T01:29:23.690Z,6.78
2022-10-28T01:31:58.577Z,7.13
2022-10-28T01:34:33.653Z,7.68
2022-10-28T01:37:10.075Z,6.03
2022-10-28T01:39:48.044Z,8.88
2022-10-28T01:42:26.612Z,12.88
2022-10-28T01:45:08.852Z,14.70
2022-10-28T01:47:47.462Z,8.70
2022-10-28T01:50:23.326Z,6.57
2022-10-28T01:52:56.912Z,5.13
2022-10-28T01:55:31.793Z,5.28
2022-10-28T01:58:02.408Z,6.40
2022-10-28T02:00:33.398Z,6.05
2022-10-28T02:03:05.057Z,3.92
2022-10-28T02:05:45.968Z,6.07
2022-10-28T02:08:44.166Z,7.78
2022-10-28T02:11:45.682Z,4.63
2022-10-28T02:14:34.035Z,5.45
2022-10-28T02:17:18.732Z,4.93
2022-10-28T02:19:55.189Z,5.88
2022-10-28T02:22:31.452Z,3.67
2022-10-28T02:25:09.947Z,5.55
2022-10-28T02:27:47.676Z,7.55
2022-10-28T02:30:24.246Z,5.22
2022-10-28T02:32:59.097Z,4.70
2022-10-28T02:35:34.544Z,4.55
2022-10-28T02:38:10.931Z,3.90
2022-10-28T02:40:43.016Z,8.13
2022-10-28T02:43:16.029Z,5.63
2022-10-28T02:45:51.175Z,4.00
2022-10-28T02:48:26.930Z,8.60
2022-10-28T02:51:06.863Z,8.77
2022-10-28T02:53:45.801Z,5.75
2022-10-28T02:56:17.578Z,4.97
2022-10-28T02:58:47.064Z,6.60
2022-10-28T03:01:16.250Z,7.07
2022-10-28T03:03:45.521Z,9.75
2022-10-28T03:06:16.301Z,5.30
2022-10-28T03:08:45.513Z,6.88
2022-10-28T03:11:14.568Z,7.35
2022-10-28T03:13:43.547Z,6.25
2022-10-28T03:16:12.609Z,4.82
2022-10-28T03:18:41.658Z,4.80
2022-10-28T03:21:10.736Z,4.85
2022-10-28T03:23:41.139Z,5.25
2022-10-28T03:26:10.190Z,4.22
2022-10-28T03:28:39.216Z,5.15
2022-10-28T03:31:08.335Z,12.43
2022-10-28T03:33:37.377Z,4.05
2022-10-28T03:36:07.050Z,5.07
2022-10-28T03:38:36.132Z,6.88
2022-10-28T03:41:06.976Z,4.03
2022-10-28T03:43:36.001Z,4.65
2022-10-28T03:46:05.098Z,6.95
2022-10-28T03:48:34.248Z,6.18
2022-10-28T03:51:03.324Z,4.78
2022-10-28T03:53:32.543Z,6.03
2022-10-28T03:56:02.835Z,3.35
2022-10-28T03:58:36.108Z,3.65
2022-10-28T04:01:08.026Z,5.35
2022-10-28T04:03:37.140Z,4.78
2022-10-28T04:06:06.845Z,4.25
2022-10-28T04:08:35.980Z,6.05
2022-10-28T04:11:05.085Z,5.03
2022-10-28T04:13:36.092Z,4.85
2022-10-28T04:16:06.149Z,6.95
2022-10-28T04:18:35.821Z,5.70
2022-10-28T04:21:05.875Z,5.35
2022-10-28T04:23:34.976Z,7.72
2022-10-28T04:26:04.104Z,7.88
2022-10-28T04:28:33.164Z,10.32
2022-10-28T04:31:03.796Z,11.10
2022-10-28T04:33:32.863Z,8.40
2022-10-28T04:39:04.858Z,6.22
2022-10-28T04:41:33.939Z,9.80
2022-10-28T04:44:03.084Z,6.00
2022-10-28T04:46:33.649Z,4.75
2022-10-28T04:49:04.124Z,7.18
2022-10-28T04:51:33.282Z,6.43
2022-10-28T04:54:02.562Z,4.40
2022-10-28T04:56:33.357Z,11.40
2022-10-28T04:59:02.708Z,5.18
2022-10-28T05:01:33.413Z,10.82
2022-10-28T05:04:02.746Z,8.00
2022-10-28T05:06:31.985Z,7.18
2022-10-28T05:09:01.110Z,5.90
2022-10-28T05:11:30.320Z,6.53
2022-10-28T05:13:59.714Z,5.13
2022-10-28T05:16:30.119Z,7.40
2022-10-28T05:19:00.968Z,6.35
2022-10-28T05:21:30.177Z,5.25
2022-10-28T05:23:59.240Z,5.18
2022-10-28T05:26:28.388Z,4.75
2022-10-28T05:28:57.527Z,7.40
2022-10-28T05:31:26.615Z,6.55
2022-10-28T05:33:55.860Z,14.85
2022-10-28T05:36:26.320Z,5.72
2022-10-28T05:38:55.388Z,3.50
2022-10-28T05:41:24.415Z,6.05
2022-10-28T05:43:53.455Z,4.18
2022-10-28T05:46:23.089Z,3.95
2022-10-28T05:48:52.244Z,6.45
2022-10-28T05:51:21.320Z,3.70
2022-10-28T05:53:51.979Z,2.85
2022-10-28T05:56:21.117Z,11.10
2022-10-28T06:01:19.616Z,10.82
2022-10-28T06:03:48.760Z,4.10
2022-10-28T06:06:18.017Z,5.93
2022-10-28T06:08:47.169Z,5.80
2022-10-28T06:11:16.068Z,7.70
2022-10-28T06:13:45.108Z,3.70
2022-10-28T06:16:14.356Z,5.45
2022-10-28T06:18:43.424Z,14.43
2022-10-28T06:21:13.099Z,15.18
2022-10-28T06:23:42.139Z,11.88
2022-10-28T06:26:11.272Z,13.70
2022-10-28T06:28:41.813Z,11.32
2022-10-28T06:31:10.923Z,10.68
2022-10-28T06:33:40.056Z,14.73
2022-10-28T06:36:09.824Z,14.43
2022-10-28T06:38:39.041Z,10.73
2022-10-28T06:41:08.213Z,7.28
2022-10-28T06:43:37.341Z,6.60
2022-10-28T06:46:07.872Z,10.82
2022-10-28T06:48:38.467Z,7.68
2022-10-28T06:51:08.709Z,8.27
2022-10-28T06:53:37.840Z,9.95
2022-10-28T06:56:08.096Z,7.47
2022-10-28T06:58:37.194Z,4.95
2022-10-28T07:01:08.347Z,5.03
2022-10-28T07:03:37.525Z,8.35
2022-10-28T07:06:08.229Z,7.35
2022-10-28T07:08:37.572Z,8.02
2022-10-28T07:11:07.586Z,7.40
2022-10-28T07:13:36.802Z,10.10
2022-10-28T07:16:08.930Z,6.82
2022-10-28T07:18:37.946Z,4.53
2022-10-28T07:21:07.287Z,6.72
2022-10-28T07:23:36.317Z,7.40
2022-10-28T07:26:05.650Z,5.68
2022-10-28T07:28:34.707Z,6.20
2022-10-28T07:31:04.471Z,6.93
2022-10-28T07:33:35.077Z,6.68
2022-10-28T07:36:05.426Z,8.25
2022-10-28T07:38:35.486Z,6.03
2022-10-28T07:41:08.051Z,9.27
2022-10-28T07:43:38.513Z,8.30
2022-10-28T07:46:09.007Z,10.45
2022-10-28T07:48:39.803Z,9.15
2022-10-28T07:51:11.976Z,9.93
2022-10-28T07:53:41.811Z,9.02
2022-10-28T07:56:14.374Z,7.70
2022-10-28T07:58:44.811Z,9.25
2022-10-28T08:01:16.964Z,9.18
2022-10-28T08:03:48.593Z,10.38
2022-10-28T08:06:20.158Z,10.35
2022-10-28T08:08:53.946Z,6.90
2022-10-28T08:11:24.004Z,9.85
2022-10-28T08:13:55.235Z,15.63
2022-10-28T08:16:24.710Z,8.55
2022-10-28T08:18:55.074Z,6.47
2022-10-28T08:21:27.198Z,7.85
2022-10-28T08:23:56.590Z,9.35
2022-10-28T08:26:25.837Z,9.07
2022-10-28T08:28:54.850Z,4.85
2022-10-28T08:31:23.904Z,4.47
2022-10-28T08:33:54.387Z,4.13
2022-10-28T08:36:23.500Z,4.40
2022-10-28T08:38:52.654Z,5.95
2022-10-28T08:41:32.502Z,5.32
2022-10-28T08:44:32.462Z,5.07
2022-10-28T08:47:17.334Z,5.38
2022-10-28T08:49:52.798Z,7.68
2022-10-28T08:52:32.392Z,8.60
2022-10-28T08:55:06.186Z,6.05
2022-10-28T08:57:41.907Z,10.10
2022-10-28T09:00:22.528Z,10.60
2022-10-28T09:03:17.986Z,7.20
2022-10-28T09:05:52.257Z,3.95
2022-10-28T09:08:24.835Z,7.50
2022-10-28T09:11:07.950Z,3.30
2022-10-28T09:13:57.012Z,3.90
2022-10-28T09:16:39.559Z,10.20
2022-10-28T09:19:26.059Z,9.27
2022-10-28T09:22:15.285Z,8.80
2022-10-28T09:24:54.068Z,5.25
2022-10-28T09:27:57.370Z,4.47
2022-10-28T09:30:49.103Z,8.00
2022-10-28T09:33:51.221Z,6.22
2022-10-28T09:36:29.744Z,3.85
2022-10-28T09:39:02.960Z,4.93
2022-10-28T09:41:38.311Z,5.22
2022-10-28T09:44:16.897Z,6.63
2022-10-28T09:46:49.818Z,4.97
2022-10-28T09:49:26.116Z,7.60
2022-10-28T09:52:02.841Z,4.07
2022-10-28T09:54:37.946Z,7.53
2022-10-28T09:57:07.383Z,11.75
2022-10-28T09:59:36.982Z,9.88
2022-10-28T10:02:06.358Z,8.73
2022-10-28T10:04:36.070Z,12.85
2022-10-28T10:07:10.545Z,10.68
2022-10-28T10:09:41.761Z,14.98
2022-10-28T10:12:13.636Z,8.95
2022-10-28T10:14:47.743Z,10.23
2022-10-28T10:17:21.005Z,8.02
2022-10-28T10:20:05.564Z,8.23
2022-10-28T10:22:36.864Z,9.45
2022-10-28T10:25:26.722Z,12.07
2022-10-28T10:28:00.285Z,8.85
2022-10-28T10:30:34.886Z,9.88
2022-10-28T10:33:04.938Z,10.75
2022-10-28T10:35:36.437Z,17.27
2022-10-28T10:38:07.983Z,11.98
2022-10-28T10:40:49.282Z,11.50
2022-10-28T10:43:31.698Z,10.52
2022-10-28T10:46:04.922Z,10.45
2022-10-28T10:48:36.618Z,8.13
2022-10-28T10:51:13.257Z,9.73
2022-10-28T10:53:42.551Z,9.80
2022-10-28T10:56:15.797Z,13.50
2022-10-28T10:58:52.654Z,8.90
2022-10-28T11:01:25.700Z,11.30
2022-10-28T11:03:59.398Z,17.80
2022-10-28T11:06:31.667Z,8.68
2022-10-28T11:09:03.845Z,11.88
2022-10-28T11:11:37.416Z,9.32
2022-10-28T11:14:19.307Z,10.07
2022-10-28T11:16:50.406Z,8.15
2022-10-28T11:19:24.878Z,9.50
2022-10-28T11:22:25.321Z,11.88
2022-10-28T11:25:36.102Z,10.43
2022-10-28T11:28:31.164Z,9.60
2022-10-28T11:31:16.702Z,13.00
2022-10-28T11:33:56.776Z,9.25
2022-10-28T11:36:33.906Z,12.13
2022-10-28T11:39:21.190Z,11.38
2022-10-28T11:42:09.548Z,9.50
2022-10-28T11:44:52.484Z,8.45
2022-10-28T11:47:41.699Z,9.32
2022-10-28T11:50:25.171Z,7.82
2022-10-28T11:53:22.342Z,17.17
2022-10-28T11:55:59.831Z,7.70
2022-10-28T11:58:42.271Z,9.85
2022-10-28T12:01:27.879Z,9.50
2022-10-28T12:04:24.308Z,7.65
2022-10-28T12:07:09.963Z,7.25
2022-10-28T12:09:54.512Z,9.10
2022-10-28T12:12:32.748Z,6.80
2022-10-28T12:15:19.479Z,8.48
2022-10-28T12:17:59.124Z,10.32
2022-10-28T12:23:26.209Z,8.25
2022-10-28T12:25:59.300Z,9.90
2022-10-28T12:28:34.527Z,11.18
2022-10-28T12:31:04.966Z,8.18
2022-10-28T12:33:43.974Z,10.73
2022-10-28T12:36:33.113Z,8.38
2022-10-28T12:39:08.006Z,9.63
2022-10-28T12:41:58.161Z,11.15
2022-10-28T12:44:29.548Z,12.57
2022-10-28T12:47:13.181Z,10.63
2022-10-28T12:49:58.633Z,10.45
2022-10-28T12:52:38.082Z,12.63
2022-10-28T12:55:22.378Z,9.85
2022-10-28T12:58:00.101Z,7.75
2022-10-28T13:00:33.686Z,6.63
2022-10-28T13:03:07.662Z,6.90
2022-10-28T13:05:44.329Z,11.10
2022-10-28T13:08:44.478Z,5.97
2022-10-28T13:12:03.891Z,6.78
2022-10-28T13:17:56.322Z,6.97
2022-10-28T13:20:40.361Z,7.43
2022-10-28T13:23:24.375Z,9.15
2022-10-28T13:26:10.614Z,6.80
2022-10-28T13:28:47.522Z,10.80
2022-10-28T13:31:17.426Z,7.82
2022-10-28T13:33:55.534Z,5.65
2022-10-28T13:36:29.569Z,5.32
2022-10-28T13:39:03.678Z,9.77
2022-10-28T13:41:38.106Z,6.90
2022-10-28T13:44:27.649Z,7.05
2022-10-28T13:47:26.904Z,6.57
2022-10-28T13:50:37.327Z,5.85
2022-10-28T13:53:55.401Z,6.32
2022-10-28T13:56:47.034Z,6.93
2022-10-28T13:59:32.011Z,5.40
2022-10-28T14:02:40.007Z,5.97
2022-10-28T14:05:11.681Z,7.43
2022-10-28T14:07:53.011Z,6.90
2022-10-28T14:10:26.660Z,6.63
2022-10-28T14:13:01.074Z,8.27
2022-10-28T14:15:32.613Z,5.90
2022-10-28T14:18:22.450Z,6.72
2022-10-28T14:21:00.903Z,7.05
2022-10-28T14:24:17.061Z,9.32
2022-10-28T14:27:32.556Z,6.45
2022-10-28T14:30:23.903Z,11.57
2022-10-28T14:33:31.631Z,5.03
2022-10-28T14:36:30.362Z,6.40
2022-10-28T14:39:25.248Z,5.72
2022-10-28T14:42:18.810Z,14.90
2022-10-28T14:45:15.898Z,8.45
2022-10-28T14:48:13.384Z,6.93
2022-10-28T14:50:46.994Z,6.57
2022-10-28T14:53:25.113Z,6.85
2022-10-28T14:56:02.193Z,8.70
2022-10-28T14:58:38.003Z,8.40
2022-10-28T15:01:22.919Z,7.53
2022-10-28T15:03:58.126Z,9.27
2022-10-28T15:06:36.332Z,6.15
2022-10-28T15:09:19.482Z,10.68
2022-10-28T15:11:55.962Z,5.75
2022-10-28T15:14:30.364Z,6.70
2022-10-28T15:17:04.031Z,5.82
2022-10-28T15:19:37.232Z,7.82
2022-10-28T15:22:14.011Z,6.32
2022-10-28T15:24:46.317Z,6.25
2022-10-28T15:27:16.913Z,8.38
2022-10-28T15:29:45.985Z,9.20
2022-10-28T15:32:29.505Z,6.72
2022-10-28T15:35:00.676Z,10.63
2022-10-28T15:37:31.970Z,6.68
2022-10-28T15:40:22.734Z,13.50
2022-10-28T15:42:58.318Z,11.15
2022-10-28T15:45:31.033Z,11.90
2022-10-28T15:48:03.715Z,12.00
2022-10-28T15:50:36.569Z,8.88
2022-10-28T15:53:37.825Z,10.43
2022-10-28T15:56:22.320Z,9.82
2022-10-28T15:59:09.058Z,9.50
2022-10-28T16:01:40.176Z,7.00
2022-10-28T16:04:43.831Z,11.88
2022-10-28T16:07:14.301Z,8.15
2022-10-28T16:09:48.078Z,6.47
2022-10-28T16:12:20.681Z,15.63
2022-10-28T16:14:54.821Z,31.05
2022-10-28T16:17:27.644Z,30.15
2022-10-28T16:20:00.506Z,19.42
2022-10-28T16:22:32.516Z,16.25
2022-10-28T16:25:01.518Z,18.15
2022-10-28T16:27:33.832Z,20.55
2022-10-28T16:30:02.836Z,20.23
2022-10-28T16:32:38.726Z,21.83
2022-10-28T16:35:16.656Z,18.52
2022-10-28T16:37:50.711Z,17.85
2022-10-28T16:40:50.880Z,14.57
2022-10-28T16:43:17.540Z,17.25
2022-10-28T16:45:47.015Z,14.35
2022-10-28T16:48:17.697Z,19.40
2022-10-28T16:50:52.481Z,14.73
2022-10-28T16:53:23.433Z,14.68
2022-10-28T16:55:54.211Z,13.43
2022-10-28T16:58:26.129Z,15.52
2022-10-28T17:00:56.821Z,19.70
2022-10-28T17:03:25.956Z,17.92
2022-10-28T17:05:54.990Z,16.42
2022-10-28T17:08:48.875Z,16.50
2022-10-28T17:11:16.400Z,17.00
2022-10-28T17:13:45.538Z,25.60
2022-10-28T17:16:14.571Z,17.58
2022-10-28T17:18:44.285Z,13.75
2022-10-28T17:21:13.299Z,18.70
2022-10-28T17:23:43.730Z,10.10
2022-10-28T17:26:12.850Z,14.68
2022-10-28T17:28:41.969Z,18.30
2022-10-28T17:31:11.570Z,12.75
2022-10-28T17:33:40.655Z,14.98
2022-10-28T17:36:11.122Z,14.30
2022-10-28T17:38:41.234Z,13.73
2022-10-28T17:41:12.480Z,14.35
2022-10-28T17:43:41.589Z,15.40
2022-10-28T17:46:11.361Z,11.10
2022-10-28T17:48:40.865Z,15.25
2022-10-28T17:51:10.071Z,10.63
2022-10-28T17:53:39.158Z,9.32
2022-10-28T17:56:09.715Z,8.98
2022-10-28T17:58:40.406Z,11.13
2022-10-28T18:01:11.808Z,8.38
2022-10-28T18:03:41.026Z,16.52
2022-10-28T18:06:13.205Z,13.13
2022-10-28T18:08:44.375Z,10.57
2022-10-28T18:11:17.122Z,14.27
2022-10-28T18:13:51.553Z,20.05
2022-10-28T18:16:24.331Z,12.77
2022-10-28T18:18:54.181Z,14.27
2022-10-28T18:21:24.734Z,10.10
2022-10-28T18:23:54.486Z,12.95
2022-10-28T18:26:23.576Z,10.77
2022-10-28T18:28:54.011Z,10.77
2022-10-28T18:31:23.486Z,10.55
2022-10-28T18:33:52.889Z,8.32
2022-10-28T18:36:24.499Z,14.23
2022-10-28T18:38:54.026Z,11.05
2022-10-28T18:41:25.858Z,12.32
2022-10-28T18:43:57.432Z,11.07
2022-10-28T18:46:29.398Z,16.45
2022-10-28T18:51:33.350Z,12.95
2022-10-28T18:54:02.919Z,14.23
2022-10-28T18:56:34.230Z,13.27
2022-10-28T18:59:06.311Z,9.98
2022-10-28T19:01:36.367Z,8.52
2022-10-28T19:04:06.352Z,13.40
2022-10-28T19:06:35.537Z,9.60
2022-10-28T19:09:05.895Z,9.60
2022-10-28T19:11:36.090Z,14.43
2022-10-28T19:14:10.104Z,13.10
2022-10-28T19:16:39.513Z,13.82
2022-10-28T19:19:08.778Z,16.13
2022-10-28T19:21:38.022Z,7.68
2022-10-28T19:24:09.184Z,10.63
2022-10-28T19:26:39.451Z,9.32
2022-10-28T19:29:14.232Z,12.40
2022-10-28T19:31:43.582Z,17.08
2022-10-28T19:34:14.348Z,14.60
2022-10-28T19:36:43.511Z,10.75
2022-10-28T19:39:13.277Z,21.92
2022-10-28T19:41:43.522Z,12.32
2022-10-28T19:44:15.415Z,14.80
2022-10-28T19:46:44.475Z,10.13
2022-10-28T19:49:13.750Z,14.60
2022-10-28T19:51:43.264Z,12.88
2022-10-28T19:54:15.177Z,15.50
2022-10-28T19:56:48.011Z,11.68
2022-10-28T19:59:18.663Z,13.07
2022-10-28T20:01:49.176Z,18.55
2022-10-28T20:04:18.572Z,18.02
2022-10-28T20:06:48.468Z,16.90
2022-10-28T20:09:17.735Z,15.07
2022-10-28T20:11:46.953Z,12.73
2022-10-28T20:14:18.909Z,13.10
2022-10-28T20:16:49.272Z,16.25
2022-10-28T20:19:18.288Z,9.25
2022-10-28T20:21:48.689Z,11.93
2022-10-28T20:24:20.000Z,11.75
2022-10-28T20:26:49.187Z,9.50
2022-10-28T20:29:19.878Z,11.23
2022-10-28T20:31:49.148Z,10.25
2022-10-28T20:34:18.207Z,8.52
2022-10-28T20:36:48.510Z,15.55
2022-10-28T20:39:20.758Z,7.60
2022-10-28T20:41:52.233Z,12.10
2022-10-28T20:44:22.759Z,9.38
2022-10-28T20:46:51.800Z,20.30
2022-10-28T20:49:20.990Z,14.60
2022-10-28T20:51:50.802Z,9.73
2022-10-28T20:54:20.001Z,10.93
2022-10-28T20:56:49.069Z,22.80
2022-10-28T20:59:18.125Z,19.85
2022-10-28T21:01:51.859Z,15.80
2022-10-28T21:04:20.994Z,10.25
2022-10-28T21:06:50.090Z,14.20
2022-10-28T21:09:19.214Z,23.08
2022-10-28T21:11:48.345Z,17.80
2022-10-28T21:14:17.691Z,11.95
2022-10-28T21:16:50.643Z,15.32
2022-10-28T21:19:19.765Z,15.00
2022-10-28T21:21:48.942Z,10.55
2022-10-28T21:24:18.065Z,16.80
2022-10-28T21:26:48.438Z,15.32
2022-10-28T21:29:20.975Z,19.88
2022-10-28T21:31:51.394Z,12.40
2022-10-28T21:34:20.520Z,12.55
2022-10-28T21:36:49.502Z,12.75
2022-10-28T21:39:18.573Z,15.75
2022-10-28T21:41:50.287Z,11.63
2022-10-28T21:44:19.585Z,15.93
2022-10-28T21:46:50.955Z,11.82
2022-10-28T21:49:19.997Z,11.80
2022-10-28T21:51:49.133Z,11.35
2022-10-28T21:54:18.831Z,18.13
2022-10-28T21:56:50.242Z,11.80
2022-10-28T21:59:19.386Z,12.05
2022-10-28T22:01:48.598Z,11.85
2022-10-28T22:04:19.238Z,13.80
2022-10-28T22:09:22.495Z,16.30
2022-10-28T22:11:51.511Z,15.13
2022-10-28T22:14:21.422Z,10.75
2022-10-28T22:16:50.571Z,11.23
2022-10-28T22:19:20.986Z,13.85
2022-10-28T22:21:50.128Z,13.85
2022-10-28T22:24:19.176Z,12.75
2022-10-28T22:26:48.345Z,9.98
2022-10-28T22:29:17.407Z,10.15
2022-10-28T22:31:47.134Z,15.70
2022-10-28T22:34:16.166Z,11.55
2022-10-28T22:36:47.805Z,11.57
2022-10-28T22:39:16.842Z,14.27
2022-10-28T22:41:45.944Z,13.68
2022-10-28T22:44:14.959Z,14.02
2022-10-28T22:46:43.984Z,12.18
2022-10-28T22:49:13.071Z,15.30
2022-10-28T22:51:42.123Z,17.73
2022-10-28T22:54:12.605Z,14.40
2022-10-28T22:56:45.652Z,20.23
2022-10-28T22:59:14.745Z,11.75
2022-10-28T23:01:43.955Z,19.13
2022-10-28T23:04:13.559Z,16.50
2022-10-28T23:06:42.574Z,22.27
2022-10-28T23:09:15.388Z,21.40
2022-10-28T23:11:44.549Z,28.30
2022-10-28T23:14:13.607Z,26.15
2022-10-28T23:16:42.667Z,40.28
2022-10-28T23:19:11.660Z,22.23
2022-10-28T23:21:40.706Z,33.25
2022-10-28T23:27:14.058Z,29.10
2022-10-28T23:29:43.230Z,32.28
2022-10-28T23:32:12.243Z,42.90
2022-10-28T23:34:41.379Z,38.33
2022-10-28T23:37:10.500Z,35.63
2022-10-28T23:39:39.522Z,37.83
2022-10-28T23:42:08.526Z,34.22
2022-10-28T23:44:39.150Z,34.95
2022-10-28T23:47:08.335Z,48.60
2022-10-28T23:49:37.374Z,42.10
2022-10-28T23:52:06.548Z,32.30
2022-10-28T23:54:35.595Z,32.58
2022-10-28T23:57:05.454Z,31.38
2022-10-28T23:59:34.653Z,38.70
